Time;durP1;ratioP1;P1;durP2;ratioP2;P2;SDS_P1;SDS_P2;PMS_P1;PMS_P2;Temp;Humidity;BMP_temperature;BMP_pressure;BME280_temperature;BME280_humidity;BME280_pressure;Samples;Min_cycle;Max_cycle;Signal;HPM_P1;HPM_P2
2022/03/13 00:02:03;;;;;;;23.70;11.55;;;;;;;-1.09;100.00;100872.85;1742493;82;21298;-69
2022/03/13 00:04:31;;;;;;;23.67;12.03;;;;;;;-1.05;100.00;100876.39;1742500;82;21210;-67
2022/03/13 00:06:58;;;;;;;24.50;12.23;;;;;;;-1.03;100.00;100877.73;1742314;82;21029;-69
2022/03/13 00:09:26;;;;;;;22.02;10.90;;;;;;;-1.05;100.00;100882.86;1740436;81;21034;-68
2022/03/13 00:11:53;;;;;;;22.25;11.12;;;;;;;-1.04;100.00;100882.42;1734178;82;21007;-68
2022/03/13 00:14:24;;;;;;;22.82;11.60;;;;;;;-1.06;100.00;100883.28;1734113;82;21057;-68
2022/03/13 00:16:52;;;;;;;19.52;10.48;;;;;;;-1.06;100.00;100881.98;1734279;82;21166;-68
2022/03/13 00:19:20;;;;;;;22.27;9.90;;;;;;;-1.06;100.00;100888.45;1734196;82;21042;-69
2022/03/13 00:21:52;;;;;;;24.18;11.35;;;;;;;-1.06;100.00;100892.33;1734443;82;21077;-68
2022/03/13 00:24:20;;;;;;;26.85;12.20;;;;;;;-1.04;100.00;100882.00;1734206;82;21526;-68
2022/03/13 00:26:51;;;;;;;29.12;12.37;;;;;;;-1.04;100.00;100885.02;1734419;82;21561;-68
2022/03/13 00:29:19;;;;;;;26.12;12.13;;;;;;;-1.06;100.00;100887.55;1734149;82;21139;-67
2022/03/13 00:31:46;;;;;;;24.40;12.30;;;;;;;-1.06;100.00;100888.45;1734118;82;21066;-67
2022/03/13 00:34:14;;;;;;;21.93;10.95;;;;;;;-1.07;100.00;100889.27;1734095;82;21069;-67
2022/03/13 00:36:41;;;;;;;25.17;12.28;;;;;;;-1.07;100.00;100882.81;1734178;82;21034;-68
2022/03/13 00:39:09;;;;;;;23.27;11.70;;;;;;;-1.05;100.00;100891.91;1734148;82;21569;-68
2022/03/13 00:41:37;;;;;;;23.60;11.65;;;;;;;-1.03;100.00;100895.83;1734277;82;21249;-68
2022/03/13 00:44:05;;;;;;;24.27;12.65;;;;;;;-1.08;100.00;100895.30;1734491;82;21006;-68
2022/03/13 00:46:33;;;;;;;35.33;13.08;;;;;;;-1.10;100.00;100893.09;1734360;82;21348;-69
2022/03/13 00:49:00;;;;;;;26.62;12.25;;;;;;;-1.12;100.00;100893.47;1726322;82;21534;-67
2022/03/13 00:51:27;;;;;;;27.02;11.78;;;;;;;-1.13;100.00;100896.91;1704990;84;21121;-68
2022/03/13 00:53:53;;;;;;;26.50;12.63;;;;;;;-1.11;100.00;100895.63;1704773;84;21238;-68
2022/03/13 00:56:20;;;;;;;24.23;11.55;;;;;;;-1.09;100.00;100897.41;1704771;84;21018;-68
2022/03/13 00:58:47;;;;;;;28.38;12.78;;;;;;;-1.08;100.00;100895.30;1704916;84;21109;-68
2022/03/13 01:01:14;;;;;;;28.57;13.80;;;;;;;-1.10;100.00;100899.55;1704708;84;21093;-69
2022/03/13 01:03:47;;;;;;;25.77;12.33;;;;;;;-1.10;100.00;100899.55;1704786;83;21054;-67
2022/03/13 01:06:14;;;;;;;114.03;50.95;;;;;;;-1.13;100.00;100894.33;1704982;84;21130;-68
2022/03/13 01:08:41;;;;;;;42.17;17.07;;;;;;;-1.13;100.00;100899.50;1705020;83;21084;-69
2022/03/13 01:11:08;;;;;;;31.15;14.40;;;;;;;-1.14;100.00;100896.86;1715384;83;21026;-69
2022/03/13 01:13:35;;;;;;;32.05;13.78;;;;;;;-1.15;100.00;100901.56;1718339;83;21101;-69
2022/03/13 01:16:23;;;;;;;32.10;13.13;;;;;;;-1.20;100.00;100898.88;1718679;83;21057;-69
2022/03/13 01:18:59;;;;;;;35.60;15.08;;;;;;;-1.23;100.00;100906.56;1718657;83;21533;-67
2022/03/13 01:21:27;;;;;;;27.15;13.88;;;;;;;-1.27;100.00;100896.59;1720688;83;20966;-69
2022/03/13 01:23:59;;;;;;;30.52;13.93;;;;;;;-1.26;100.00;100896.16;1720820;83;21030;-67
2022/03/13 01:26:36;;;;;;;33.50;14.07;;;;;;;-1.28;100.00;100898.70;1720845;83;21014;-67
2022/03/13 01:29:08;;;;;;;26.50;12.95;;;;;;;-1.30;100.00;100902.09;1720866;83;21033;-68
2022/03/13 01:31:38;;;;;;;36.40;14.93;;;;;;;-1.32;100.00;100899.47;1721091;83;21162;-67
2022/03/13 01:34:12;;;;;;;28.15;12.55;;;;;;;-1.36;100.00;100895.48;1720693;83;21104;-68
2022/03/13 01:36:39;;;;;;;35.83;14.80;;;;;;;-1.34;100.00;100906.73;1716149;83;21062;-69
2022/03/13 01:39:07;;;;;;;36.77;14.25;;;;;;;-1.37;100.00;100906.67;1718457;83;21010;-67
2022/03/13 01:41:34;;;;;;;45.12;17.00;;;;;;;-1.40;100.00;100914.33;1718421;83;21029;-69
2022/03/13 01:44:01;;;;;;;51.45;17.35;;;;;;;-1.43;100.00;100909.09;1718490;83;21285;-67
2022/03/13 01:46:29;;;;;;;36.42;15.95;;;;;;;-1.49;100.00;100911.98;1718298;83;21050;-67
2022/03/13 01:49:06;;;;;;;30.75;13.83;;;;;;;-1.52;100.00;100914.51;1725745;82;21061;-68
2022/03/13 01:51:34;;;;;;;39.92;15.70;;;;;;;-1.53;100.00;100919.20;1748201;81;21057;-67
2022/03/13 01:54:08;;;;;;;26.90;14.23;;;;;;;-1.56;100.00;100920.42;1748539;82;21245;-68
2022/03/13 01:56:37;;;;;;;28.38;12.78;;;;;;;-1.57;100.00;100921.25;1748221;82;21109;-67
2022/03/13 01:59:06;;;;;;;30.05;13.93;;;;;;;-1.57;100.00;100921.25;1748536;82;21057;-67
2022/03/13 02:01:32;;;;;;;34.92;16.05;;;;;;;-1.57;100.00;100925.13;1748065;82;21061;-67
2022/03/13 02:03:59;;;;;;;55.45;19.05;;;;;;;-1.59;100.00;100925.50;1748109;82;21045;-67
2022/03/13 02:06:26;;;;;;;39.00;14.58;;;;;;;-1.63;100.00;100924.98;1748143;82;22207;-68
2022/03/13 02:08:54;;;;;;;28.00;12.40;;;;;;;-1.65;100.00;100923.20;1748034;82;21380;-68
2022/03/13 02:11:24;;;;;;;34.20;13.00;;;;;;;-1.70;100.00;100928.25;1737562;81;21015;-67
2022/03/13 02:13:53;;;;;;;22.37;11.85;;;;;;;-1.69;100.00;100931.28;1734175;82;21011;-67
2022/03/13 02:16:20;;;;;;;34.40;14.28;;;;;;;-1.69;100.00;100937.31;1734147;82;21041;-67
2022/03/13 02:18:51;;;;;;;26.33;13.10;;;;;;;-1.70;100.00;100936.87;1734536;82;21042;-69
2022/03/13 02:21:26;;;;;;;31.85;13.35;;;;;;;-1.67;100.00;100937.36;1734279;82;21038;-67
2022/03/13 02:23:58;;;;;;;24.47;12.85;;;;;;;-1.66;100.00;100935.22;1734358;82;21085;-68
2022/03/13 02:26:27;;;;;;;30.32;13.28;;;;;;;-1.66;100.00;100935.22;1734061;82;21007;-70
2022/03/13 02:28:55;;;;;;;33.23;14.85;;;;;;;-1.66;100.00;100940.39;1734214;82;21081;-68
2022/03/13 02:31:35;;;;;;;33.50;13.72;;;;;;;-1.63;100.00;100944.75;1734351;82;21085;-68
2022/03/13 02:34:05;;;;;;;29.20;13.25;;;;;;;-1.65;100.00;100946.03;1734284;82;21128;-68
2022/03/13 02:36:44;;;;;;;32.03;13.60;;;;;;;-1.62;100.00;100945.23;1734747;82;21125;-68
2022/03/13 02:39:11;;;;;;;27.02;12.58;;;;;;;-1.61;100.00;100951.73;1734332;82;21042;-68
2022/03/13 02:41:41;;;;;;;27.42;13.45;;;;;;;-1.58;100.00;100952.23;1734209;82;21093;-67
2022/03/13 02:44:08;;;;;;;28.15;12.25;;;;;;;-1.58;100.00;100958.26;1734290;82;21034;-69
2022/03/13 02:46:58;;;;;;;25.85;12.10;;;;;;;-1.60;100.00;100959.92;1734632;82;21173;-67
2022/03/13 02:49:26;;;;;;;26.55;11.78;;;;;;;-1.62;100.00;100960.30;1721419;82;22096;-67
2022/03/13 02:51:56;;;;;;;23.67;11.80;;;;;;;-1.60;100.00;100959.92;1705364;83;21270;-67
2022/03/13 02:54:22;;;;;;;26.50;13.25;;;;;;;-1.58;100.00;100971.17;1705239;84;21249;-67
2022/03/13 02:56:50;;;;;;;31.50;14.03;;;;;;;-1.60;100.00;100963.80;1704960;84;21062;-68
2022/03/13 02:59:17;;;;;;;27.32;14.23;;;;;;;-1.59;100.00;100970.70;1705064;84;21242;-68
2022/03/13 03:01:44;;;;;;;31.60;13.03;;;;;;;-1.57;100.00;100976.78;1705005;84;21045;-67
2022/03/13 03:04:12;;;;;;;29.50;12.75;;;;;;;-1.56;100.00;100977.26;1705091;84;21049;-68
2022/03/13 03:06:39;;;;;;;27.98;12.47;;;;;;;-1.55;100.00;100977.70;1704950;84;21070;-67
2022/03/13 03:09:09;;;;;;;25.77;12.25;;;;;;;-1.54;100.00;100976.89;1704961;84;21081;-68
2022/03/13 03:11:35;;;;;;;27.67;12.00;;;;;;;-1.53;100.00;100982.92;1713942;83;21306;-68
2022/03/13 03:14:03;;;;;;;24.55;12.63;;;;;;;-1.52;100.00;100989.42;1718544;83;21010;-68
2022/03/13 03:16:31;;;;;;;25.02;11.55;;;;;;;-1.54;100.00;100987.22;1718373;83;21112;-67
2022/03/13 03:18:58;;;;;;;24.02;11.40;;;;;;;-1.54;100.00;100990.19;1718520;83;21037;-67
2022/03/13 03:21:25;;;;;;;22.62;11.38;;;;;;;-1.56;100.00;100991.47;1718629;83;21053;-68
2022/03/13 03:23:53;;;;;;;24.43;11.60;;;;;;;-1.57;100.00;100993.58;1718389;83;21065;-68
2022/03/13 03:26:20;;;;;;;24.67;11.85;;;;;;;-1.56;100.00;100997.92;1718541;83;21517;-68
2022/03/13 03:28:48;;;;;;;28.00;12.88;;;;;;;-1.54;100.00;100996.26;1718436;83;21026;-67
2022/03/13 03:31:16;;;;;;;24.07;12.05;;;;;;;-1.54;100.00;101006.59;1718545;83;21053;-68
2022/03/13 03:33:44;;;;;;;30.32;12.98;;;;;;;-1.54;100.00;101006.59;1718353;83;21021;-68
2022/03/13 03:36:16;;;;;;;26.93;13.35;;;;;;;-1.57;100.00;101006.48;1718824;83;21241;-68
2022/03/13 03:38:44;;;;;;;31.62;14.63;;;;;;;-1.58;100.00;101008.62;1718388;83;21053;-68
2022/03/13 03:41:11;;;;;;;28.17;13.35;;;;;;;-1.58;100.00;101010.34;1718465;83;21640;-67
2022/03/13 03:43:37;;;;;;;38.25;15.65;;;;;;;-1.58;100.00;101013.80;1718566;83;21105;-69
2022/03/13 03:46:03;;;;;;;30.95;13.45;;;;;;;-1.60;100.00;101012.87;1718739;83;21566;-69
2022/03/13 03:48:30;;;;;;;32.13;14.00;;;;;;;-1.61;100.00;101016.31;1720389;82;21146;-67
2022/03/13 03:50:58;;;;;;;34.53;15.68;;;;;;;-1.64;100.00;101012.75;1748279;82;21037;-68
2022/03/13 03:53:25;;;;;;;33.90;13.28;;;;;;;-1.63;100.00;101014.10;1748379;82;21064;-68
2022/03/13 03:55:52;;;;;;;25.32;12.07;;;;;;;-1.66;100.00;101015.28;1748200;82;21124;-67
2022/03/13 03:58:21;;;;;;;31.85;12.95;;;;;;;-1.66;100.00;101015.71;1748187;82;21010;-68
2022/03/13 04:00:48;;;;;;;30.72;13.28;;;;;;;-1.65;100.00;101014.47;1748559;82;21114;-68
2022/03/13 04:03:15;;;;;;;29.30;12.35;;;;;;;-1.64;100.00;101018.79;1748016;82;21117;-68
2022/03/13 04:05:42;;;;;;;28.98;12.43;;;;;;;-1.64;100.00;101025.25;1748116;82;21034;-67
2022/03/13 04:08:09;;;;;;;25.83;13.10;;;;;;;-1.65;100.00;101022.22;1748233;82;21013;-68
2022/03/13 04:10:37;;;;;;;28.83;12.85;;;;;;;-1.64;100.00;101021.38;1746387;81;21529;-67
2022/03/13 04:13:04;;;;;;;28.70;12.98;;;;;;;-1.64;100.00;101025.25;1734027;82;21159;-68
2022/03/13 04:15:31;;;;;;;31.15;13.55;;;;;;;-1.63;100.00;101026.11;1734159;82;21581;-69
2022/03/13 04:17:59;;;;;;;27.58;13.80;;;;;;;-1.62;100.00;101030.04;1734084;82;21388;-66
2022/03/13 04:20:29;;;;;;;26.27;12.58;;;;;;;-1.62;100.00;101028.75;1733989;82;21053;-68
2022/03/13 04:22:56;;;;;;;26.40;13.00;;;;;;;-1.62;100.00;101032.63;1734295;82;21045;-67
2022/03/13 04:25:26;;;;;;;25.68;12.90;;;;;;;-1.62;100.00;101032.63;1734151;82;21026;-67
2022/03/13 04:27:55;;;;;;;24.47;12.07;;;;;;;-1.61;100.00;101031.80;1733893;82;21089;-66
2022/03/13 04:30:21;;;;;;;27.05;12.88;;;;;;;-1.60;100.00;101041.30;1734157;82;21078;-68
2022/03/13 04:32:48;;;;;;;27.90;13.50;;;;;;;-1.63;100.00;101045.09;1733923;82;21019;-69
2022/03/13 04:35:15;;;;;;;21.90;11.93;;;;;;;-1.63;100.00;101051.55;1734168;82;21120;-67
2022/03/13 04:37:41;;;;;;;23.65;11.45;;;;;;;-1.61;100.00;101048.98;1734364;82;21601;-67
2022/03/13 04:40:12;;;;;;;21.97;10.68;;;;;;;-1.61;100.00;101053.77;1733971;82;21078;-67
2022/03/13 04:42:39;;;;;;;27.32;11.83;;;;;;;-1.60;100.00;101059.38;1734080;82;21039;-67
2022/03/13 04:45:06;;;;;;;24.37;11.45;;;;;;;-1.60;100.00;101059.38;1734450;82;21038;-67
2022/03/13 04:47:34;;;;;;;25.08;11.63;;;;;;;-1.58;100.00;101070.63;1733952;82;21042;-67
2022/03/13 04:50:00;;;;;;;23.75;11.97;;;;;;;-1.58;100.00;101070.63;1734040;82;21184;-68
2022/03/13 04:52:28;;;;;;;26.10;12.20;;;;;;;-1.59;100.00;101075.73;1734020;82;21041;-68
2022/03/13 04:54:54;;;;;;;25.75;12.18;;;;;;;-1.61;100.00;101078.30;1733884;82;21057;-67
2022/03/13 04:57:21;;;;;;;20.32;11.28;;;;;;;-1.61;100.00;101086.05;1734128;82;21016;-67
2022/03/13 04:59:48;;;;;;;28.15;12.55;;;;;;;-1.63;100.00;101087.71;1734198;82;21057;-69
2022/03/13 05:02:14;;;;;;;23.67;11.93;;;;;;;-1.61;100.00;101095.09;1734254;82;21240;-67
2022/03/13 05:04:44;;;;;;;25.08;12.85;;;;;;;-1.59;100.00;101092.11;1734006;82;21555;-68
2022/03/13 05:07:11;;;;;;;22.27;11.03;;;;;;;-1.56;100.00;101096.09;1734351;82;21101;-68
2022/03/13 05:09:38;;;;;;;22.42;11.75;;;;;;;-1.54;100.00;101103.47;1734386;82;21093;-69
2022/03/13 05:12:10;;;;;;;23.55;11.08;;;;;;;-1.54;100.00;101104.76;1742663;82;21085;-68
2022/03/13 05:14:36;;;;;;;24.20;11.22;;;;;;;-1.55;100.00;101105.57;1748261;81;21227;-68
2022/03/13 05:17:04;;;;;;;26.80;10.70;;;;;;;-1.53;100.00;101102.63;1748319;82;21070;-68
2022/03/13 05:19:30;;;;;;;26.95;10.50;;;;;;;-1.52;100.00;101107.36;1748376;82;21050;-68
2022/03/13 05:21:58;;;;;;;20.25;10.30;;;;;;;-1.54;100.00;101112.51;1748207;82;21021;-68
2022/03/13 05:24:25;;;;;;;23.92;11.75;;;;;;;-1.55;100.00;101117.20;1748349;82;21096;-68
2022/03/13 05:26:51;;;;;;;20.52;10.68;;;;;;;-1.56;100.00;101117.18;1748523;82;21180;-67
2022/03/13 05:29:18;;;;;;;20.15;10.43;;;;;;;-1.59;100.00;101128.27;1748225;82;21779;-68
2022/03/13 05:31:45;;;;;;;20.27;11.15;;;;;;;-1.58;100.00;101136.92;1748504;82;21081;-67
2022/03/13 05:34:11;;;;;;;21.50;10.95;;;;;;;-1.59;100.00;101136.02;1748293;82;21049;-68
2022/03/13 05:36:38;;;;;;;22.10;11.12;;;;;;;-1.57;100.00;101144.69;1748038;82;21554;-66
2022/03/13 05:39:05;;;;;;;28.00;12.30;;;;;;;-1.57;100.00;101142.53;1748091;82;21110;-68
2022/03/13 05:41:33;;;;;;;24.40;11.68;;;;;;;-1.54;100.00;101149.97;1747838;82;21029;-68
2022/03/13 05:43:59;;;;;;;26.02;11.97;;;;;;;-1.55;100.00;101144.32;1748131;82;21040;-67
2022/03/13 05:46:26;;;;;;;25.08;11.75;;;;;;;-1.52;100.00;101149.59;1747971;82;21116;-67
2022/03/13 05:48:53;;;;;;;24.05;12.13;;;;;;;-1.51;100.00;101154.34;1741684;82;21081;-69
2022/03/13 05:51:20;;;;;;;22.98;11.73;;;;;;;-1.52;100.00;101158.64;1718254;83;21219;-68
2022/03/13 05:53:46;;;;;;;23.70;11.78;;;;;;;-1.50;99.79;101162.11;1718148;83;21057;-67
2022/03/13 05:56:13;;;;;;;20.90;10.72;;;;;;;-1.52;99.32;101166.39;1718373;83;21053;-69
2022/03/13 05:58:40;;;;;;;21.82;11.35;;;;;;;-1.53;98.94;101169.79;1718417;83;21563;-68
2022/03/13 06:01:08;;;;;;;21.82;11.65;;;;;;;-1.50;99.02;101176.33;1731572;82;21550;-67
2022/03/13 06:03:37;;;;;;;23.77;12.35;;;;;;;-1.49;99.02;101180.68;1748082;82;21286;-68
2022/03/13 06:06:04;;;;;;;20.82;10.75;;;;;;;-1.46;98.99;101177.73;1748030;82;21752;-68
2022/03/13 06:08:34;;;;;;;19.10;9.75;;;;;;;-1.45;99.06;101187.22;1747987;82;21037;-67
2022/03/13 06:11:03;;;;;;;21.17;10.67;;;;;;;-1.41;99.10;101191.64;1748346;82;21546;-67
2022/03/13 06:13:30;;;;;;;22.45;10.53;;;;;;;-1.38;98.91;101189.14;1720674;82;21057;-67
2022/03/13 06:15:58;;;;;;;20.65;10.25;;;;;;;-1.38;98.81;101195.20;1748115;82;21190;-68
2022/03/13 06:18:31;;;;;;;21.57;11.73;;;;;;;-1.37;98.85;101202.53;1747954;82;21046;-67
2022/03/13 06:20:59;;;;;;;20.10;10.15;;;;;;;-1.40;98.62;101201.13;1748005;82;21529;-68
2022/03/13 06:27:11;;;;;;;61.27;17.00;;;;;;;-1.36;98.85;101212.03;1771704;79;22279;-67
2022/03/13 06:29:39;;;;;;;27.48;12.65;;;;;;;-1.31;98.33;101216.94;1726206;83;21048;-68
2022/03/13 06:32:07;;;;;;;26.97;10.78;;;;;;;-1.28;98.18;101220.89;1726296;83;21209;-67
2022/03/13 06:34:34;;;;;;;28.50;11.57;;;;;;;-1.30;98.14;101220.84;1726255;83;21532;-68
2022/03/13 06:37:04;;;;;;;39.90;14.60;;;;;;;-1.30;97.81;101219.55;1726275;83;21088;-69
2022/03/13 06:39:32;;;;;;;28.40;13.50;;;;;;;-1.28;98.14;101228.64;1726641;83;21340;-67
2022/03/13 06:41:58;;;;;;;36.17;12.33;;;;;;;-1.27;98.10;101231.67;1726417;83;21530;-66
2022/03/13 06:44:25;;;;;;;39.70;14.00;;;;;;;-1.27;97.70;101224.83;1726500;83;21109;-68
2022/03/13 06:46:51;;;;;;;24.50;11.15;;;;;;;-1.27;97.61;101227.80;1726255;83;21092;-68
2022/03/13 06:49:18;;;;;;;24.57;12.43;;;;;;;-1.27;97.86;101231.67;1738316;81;21071;-67
2022/03/13 06:51:45;;;;;;;22.50;10.93;;;;;;;-1.23;97.91;101234.81;1756462;81;21419;-66
2022/03/13 06:54:11;;;;;;;30.52;12.55;;;;;;;-1.20;97.95;101231.02;1756814;81;21044;-68
2022/03/13 06:56:39;;;;;;;23.95;11.45;;;;;;;-1.18;97.85;101241.41;1756539;81;21807;-68
2022/03/13 06:59:07;;;;;;;38.42;18.45;;;;;;;-1.17;97.42;101244.05;1756362;81;21471;-68
2022/03/13 07:01:34;;;;;;;69.75;17.62;;;;;;;-1.18;97.03;101242.28;1756513;81;21534;-67
2022/03/13 07:04:01;;;;;;;50.65;15.35;;;;;;;-1.17;97.10;101247.92;1756772;81;21051;-66
2022/03/13 07:06:27;;;;;;;46.30;15.55;;;;;;;-1.17;97.22;101250.51;1756170;81;21074;-68
2022/03/13 07:08:55;;;;;;;38.45;13.90;;;;;;;-1.16;97.22;101256.12;1756248;81;21091;-67
2022/03/13 07:11:23;;;;;;;37.00;14.03;;;;;;;-1.12;97.13;101252.80;1756312;81;21074;-69
2022/03/13 07:13:49;;;;;;;29.42;12.35;;;;;;;-1.11;97.34;101262.30;1755351;81;21042;-67
2022/03/13 07:16:16;;;;;;;34.30;12.78;;;;;;;-1.03;97.21;101261.67;1726188;83;21075;-67
2022/03/13 07:18:45;;;;;;;32.67;12.63;;;;;;;-1.00;96.89;101265.20;1726157;83;21117;-67
2022/03/13 07:21:12;;;;;;;30.65;11.93;;;;;;;-0.96;96.59;101269.62;1726007;82;21361;-68
2022/03/13 07:23:40;;;;;;;24.55;11.50;;;;;;;-1.01;95.95;101265.14;1726049;83;21038;-69
2022/03/13 07:26:07;;;;;;;25.85;12.13;;;;;;;-1.06;96.20;101273.67;1724235;82;21095;-69
2022/03/13 07:28:34;;;;;;;41.85;13.53;;;;;;;-1.06;96.34;101271.09;1721194;82;21615;-67
2022/03/13 07:31:00;;;;;;;26.05;10.85;;;;;;;-1.03;96.75;101273.30;1721361;82;21578;-66
2022/03/13 07:33:27;;;;;;;24.20;10.58;;;;;;;-1.02;96.85;101281.50;1721099;83;21552;-68
2022/03/13 07:35:57;;;;;;;20.65;10.88;;;;;;;-1.00;96.73;101285.02;1721123;82;21572;-68
2022/03/13 07:38:24;;;;;;;23.18;11.73;;;;;;;-0.99;96.67;101281.58;1720575;83;21087;-68
2022/03/13 07:40:51;;;;;;;20.97;9.90;;;;;;;-0.99;96.48;101284.16;1721043;83;21059;-68
2022/03/13 07:43:19;;;;;;;22.45;11.08;;;;;;;-0.96;96.89;101280.39;1720902;82;21102;-68
2022/03/13 07:45:46;;;;;;;22.58;11.12;;;;;;;-0.92;96.42;101287.38;1721047;83;21260;-68
2022/03/13 07:48:12;;;;;;;21.97;10.88;;;;;;;-0.91;95.63;101293.03;1720781;83;21059;-67
2022/03/13 07:50:40;;;;;;;27.98;11.05;;;;;;;-0.88;95.21;101291.81;1720897;83;21081;-68
2022/03/13 07:53:06;;;;;;;30.52;13.50;;;;;;;-0.91;95.38;101293.03;1720863;83;21026;-69
2022/03/13 07:55:33;;;;;;;21.90;11.73;;;;;;;-0.92;95.81;101291.26;1720819;83;21058;-68
2022/03/13 07:58:00;;;;;;;23.70;10.45;;;;;;;-0.96;95.86;101290.73;1720863;83;21165;-68
2022/03/13 08:00:26;;;;;;;46.92;14.07;;;;;;;-0.96;95.95;101297.20;1720734;83;21054;-67
2022/03/13 08:02:54;;;;;;;25.08;11.33;;;;;;;-0.90;96.12;101301.23;1720823;83;21657;-68
2022/03/13 08:05:22;;;;;;;22.02;10.08;;;;;;;-0.84;96.13;101301.42;1720659;83;21085;-68
2022/03/13 08:07:52;;;;;;;28.52;11.03;;;;;;;-0.76;96.08;101302.52;1720697;83;21545;-68
2022/03/13 08:10:23;;;;;;;25.00;11.40;;;;;;;-0.68;96.00;101308.77;1720869;83;21256;-69
2022/03/13 08:12:53;;;;;;;23.05;11.05;;;;;;;-0.60;96.32;101313.27;1720764;83;21014;-69
2022/03/13 08:15:20;;;;;;;38.60;14.18;;;;;;;-0.55;96.25;101308.70;1720753;83;21129;-68
2022/03/13 08:17:47;;;;;;;33.35;12.43;;;;;;;-0.57;95.73;101310.37;1720710;83;21041;-69
2022/03/13 08:20:14;;;;;;;24.98;11.10;;;;;;;-0.58;95.00;101318.08;1720679;83;21647;-69
2022/03/13 08:22:43;;;;;;;28.70;13.98;;;;;;;-0.61;95.20;101314.99;1720529;83;21221;-69
2022/03/13 08:25:15;;;;;;;21.20;12.03;;;;;;;-0.62;95.05;101319.72;1720819;83;21585;-69
2022/03/13 08:27:39;;;;;;;23.30;10.75;;;;;;;-0.63;95.24;101317.95;1724853;82;21069;-67
2022/03/13 08:30:07;;;;;;;21.45;9.68;;;;;;;-0.65;94.88;101317.89;1725824;83;21084;-67
2022/03/13 08:32:36;;;;;;;24.23;10.82;;;;;;;-0.67;94.59;101317.01;1691349;84;21071;-67
2022/03/13 08:35:06;;;;;;;25.48;11.45;;;;;;;-0.67;94.93;101321.28;1673264;85;21227;-68
2022/03/13 08:37:33;;;;;;;21.77;9.88;;;;;;;-0.65;95.71;101318.32;1674042;85;21118;-69
2022/03/13 08:40:01;;;;;;;20.32;10.60;;;;;;;-0.56;95.96;101319.00;1673647;85;21069;-68
2022/03/13 08:42:29;;;;;;;17.75;9.83;;;;;;;-0.50;95.21;101323.06;1673718;85;21578;-69
2022/03/13 08:44:57;;;;;;;23.73;10.90;;;;;;;-0.46;94.94;101331.34;1673704;85;21074;-67
2022/03/13 08:47:24;;;;;;;17.50;9.33;;;;;;;-0.38;94.12;101336.32;1673558;85;21244;-68
2022/03/13 08:49:51;;;;;;;19.90;10.28;;;;;;;-0.27;94.17;101332.73;1673484;85;21114;-69
2022/03/13 08:52:19;;;;;;;22.52;10.65;;;;;;;-0.22;93.68;101325.95;1673488;85;21086;-68
2022/03/13 08:54:47;;;;;;;14.98;8.35;;;;;;;-0.13;93.89;101331.80;1673486;85;21081;-69
2022/03/13 08:57:15;;;;;;;21.12;9.88;;;;;;;-0.01;93.65;101338.58;1673573;85;21112;-69
2022/03/13 08:59:42;;;;;;;19.57;10.63;;;;;;;0.09;93.46;101345.76;1673728;85;21128;-67
2022/03/13 09:02:09;;;;;;;21.27;9.93;;;;;;;0.15;92.87;101345.89;1673519;85;21023;-69
2022/03/13 09:04:36;;;;;;;17.97;9.93;;;;;;;0.22;92.28;101348.22;1673552;85;21110;-67
2022/03/13 09:07:03;;;;;;;21.68;10.18;;;;;;;0.29;92.03;101349.24;1673615;85;21126;-68
2022/03/13 09:09:30;;;;;;;20.95;10.25;;;;;;;0.36;91.31;101348.13;1673872;85;21126;-68
2022/03/13 09:11:59;;;;;;;20.92;9.80;;;;;;;0.35;90.26;101350.70;1673921;85;21047;-68
2022/03/13 09:14:26;;;;;;;19.30;10.05;;;;;;;0.34;90.13;101350.22;1673563;85;21069;-68
2022/03/13 09:16:53;;;;;;;20.50;10.82;;;;;;;0.38;89.89;101350.34;1673871;85;21046;-69
2022/03/13 09:19:20;;;;;;;26.80;12.00;;;;;;;0.43;90.09;101348.28;1673734;85;21117;-67
2022/03/13 09:21:48;;;;;;;19.67;10.50;;;;;;;0.49;89.14;101362.27;1673647;85;21086;-68
2022/03/13 09:24:14;;;;;;;22.58;10.70;;;;;;;0.52;87.15;101360.16;1673740;85;21263;-70
2022/03/13 09:26:43;;;;;;;19.95;10.15;;;;;;;0.51;87.67;101364.48;1672371;85;21034;-69
2022/03/13 09:29:09;;;;;;;17.67;9.55;;;;;;;0.58;87.98;101367.67;1720848;83;21234;-69
2022/03/13 09:31:36;;;;;;;19.05;9.55;;;;;;;0.65;87.87;101362.64;1715717;83;21108;-67
2022/03/13 09:34:03;;;;;;;21.55;10.38;;;;;;;0.69;87.73;101372.21;1713529;83;21049;-66
2022/03/13 09:36:30;;;;;;;20.02;9.70;;;;;;;0.70;86.72;101373.98;1714127;83;21235;-68
2022/03/13 09:38:56;;;;;;;17.75;9.93;;;;;;;0.66;86.30;101366.97;1714505;83;21046;-68
2022/03/13 09:41:24;;;;;;;20.48;11.00;;;;;;;0.63;86.14;101379.02;1714585;83;21061;-69
2022/03/13 09:43:51;;;;;;;17.25;9.58;;;;;;;0.58;85.95;101376.74;1714286;83;21490;-68
2022/03/13 09:46:19;;;;;;;18.35;9.48;;;;;;;0.58;86.34;101378.03;1713104;83;21565;-67
2022/03/13 09:48:46;;;;;;;18.00;9.58;;;;;;;0.53;84.42;101379.66;1712905;83;21214;-67
2022/03/13 09:51:13;;;;;;;18.52;9.80;;;;;;;0.43;85.01;101381.97;1712916;83;21014;-68
2022/03/13 09:53:40;;;;;;;18.73;9.28;;;;;;;0.43;85.01;101381.97;1713137;83;21080;-66
2022/03/13 09:56:06;;;;;;;18.50;8.95;;;;;;;0.38;84.65;101390.93;1712755;83;21097;-67
2022/03/13 09:58:34;;;;;;;18.15;10.32;;;;;;;0.39;85.03;101390.08;1712945;83;21116;-69
2022/03/13 10:01:01;;;;;;;16.77;10.13;;;;;;;0.40;84.54;101390.55;1713267;83;21240;-69
2022/03/13 10:03:27;;;;;;;19.07;10.08;;;;;;;0.35;84.76;101398.64;1712821;83;21049;-68
2022/03/13 10:05:57;;;;;;;18.27;9.73;;;;;;;0.26;84.38;101401.00;1712901;83;21046;-68
2022/03/13 10:08:32;;;;;;;20.32;10.28;;;;;;;0.12;84.57;101400.22;1684903;83;21045;-68
2022/03/13 10:11:02;;;;;;;18.75;8.93;;;;;;;0.08;85.08;101403.98;1713118;83;21597;-68
2022/03/13 10:13:45;;;;;;;20.68;10.43;;;;;;;0.06;85.36;101405.23;1713405;83;26130;-69
2022/03/13 10:16:24;;;;;;;20.20;10.08;;;;;;;0.11;85.88;101399.75;1712971;83;21039;-68
2022/03/13 10:18:50;;;;;;;21.75;9.75;;;;;;;0.15;86.24;101400.29;1710985;83;21066;-68
2022/03/13 10:21:17;;;;;;;19.15;10.30;;;;;;;0.26;86.41;101404.89;1713177;83;21053;-68
2022/03/13 10:23:47;;;;;;;18.00;9.15;;;;;;;0.37;86.37;101400.86;1708267;83;21048;-68
2022/03/13 10:26:16;;;;;;;18.17;9.25;;;;;;;0.40;86.27;101402.22;1713229;83;21137;-68
2022/03/13 10:28:44;;;;;;;17.33;9.70;;;;;;;0.48;85.19;101404.56;1716035;83;21076;-69
2022/03/13 10:31:15;;;;;;;16.07;9.13;;;;;;;0.52;84.81;101401.21;1718643;83;21057;-69
2022/03/13 10:33:47;;;;;;;20.82;9.83;;;;;;;0.60;84.40;101397.10;1681723;85;21045;-68
2022/03/13 10:36:25;;;;;;;15.70;9.28;;;;;;;0.62;83.01;101410.98;1681668;84;21534;-67
2022/03/13 10:38:52;;;;;;;16.45;9.10;;;;;;;0.57;82.79;101414.28;1718743;83;21094;-68
2022/03/13 10:41:20;;;;;;;20.17;9.13;;;;;;;0.51;81.95;101412.44;1718257;82;21061;-68
2022/03/13 10:43:57;;;;;;;17.98;9.10;;;;;;;0.43;81.27;101411.35;1681487;85;21054;-68
2022/03/13 10:46:27;;;;;;;17.70;9.20;;;;;;;0.37;81.69;101419.00;1681220;84;21056;-69
2022/03/13 10:48:55;;;;;;;18.48;9.73;;;;;;;0.34;81.57;101421.06;1681426;85;21151;-67
2022/03/13 10:51:45;;;;;;;21.02;10.58;;;;;;;0.30;81.83;101414.47;1718482;82;21226;-68
2022/03/13 10:54:28;;;;;;;18.40;9.75;;;;;;;0.29;82.33;101419.20;1718432;82;21092;-69
2022/03/13 10:57:06;;;;;;;20.25;10.48;;;;;;;0.31;82.95;101421.42;1698121;83;21523;-69
2022/03/13 10:59:33;;;;;;;18.75;9.55;;;;;;;0.36;82.64;101419.81;1718297;82;21079;-68
2022/03/13 11:02:14;;;;;;;16.62;9.28;;;;;;;0.40;81.52;101418.63;1718459;83;21043;-68
2022/03/13 11:04:53;;;;;;;19.82;10.05;;;;;;;0.45;81.49;101418.75;1718578;83;21245;-70
2022/03/13 11:07:20;;;;;;;16.10;9.63;;;;;;;0.48;81.95;101416.66;1718701;83;22054;-68
2022/03/13 11:09:47;;;;;;;18.55;9.45;;;;;;;0.51;80.81;101421.50;1718489;83;21052;-68
2022/03/13 11:12:22;;;;;;;14.87;8.90;;;;;;;0.48;80.50;101424.42;1718598;83;21075;-68
2022/03/13 11:14:53;;;;;;;19.37;9.45;;;;;;;0.52;80.54;101421.08;1718776;82;21500;-69
2022/03/13 11:17:24;;;;;;;18.62;10.28;;;;;;;0.53;80.13;101425.02;1719049;82;21186;-68